sensor_id;sensor_type;location;lat;lon;timestamp;pressure;altitude;pressure_sealevel;temperature;humidity
49947;BME280;35839;48.662;13.300;2023-05-09T04:47:12;97695.56;;;14.15;63.60
49947;BME280;35839;48.662;13.300;2023-05-09T04:49:37;97681.03;;;13.86;64.55
49947;BME280;35839;48.662;13.300;2023-05-09T04:52:02;97688.94;;;14.27;62.56
49947;BME280;35839;48.662;13.300;2023-05-09T04:54:28;97687.78;;;14.30;62.43
49947;BME280;35839;48.662;13.300;2023-05-09T04:56:53;97685.00;;;14.31;61.07
49947;BME280;35839;48.662;13.300;2023-05-09T04:59:18;97685.78;;;14.40;60.73
49947;BME280;35839;48.662;13.300;2023-05-09T05:01:44;97680.72;;;14.39;62.55
49947;BME280;35839;48.662;13.300;2023-05-09T05:04:09;97689.09;;;14.67;61.97
49947;BME280;35839;48.662;13.300;2023-05-09T05:06:34;97678.56;;;14.50;62.50
49947;BME280;35839;48.662;13.300;2023-05-09T05:09:00;97682.81;;;14.76;61.35
49947;BME280;35839;48.662;13.300;2023-05-09T05:11:25;97686.91;;;14.79;61.26
49947;BME280;35839;48.662;13.300;2023-05-09T05:13:50;97672.97;;;14.62;63.18
49947;BME280;35839;48.662;13.300;2023-05-09T05:16:15;97680.19;;;14.51;62.63
49947;BME280;35839;48.662;13.300;2023-05-09T05:18:41;97680.22;;;14.35;61.71
49947;BME280;35839;48.662;13.300;2023-05-09T05:21:06;97678.41;;;14.44;60.51
49947;BME280;35839;48.662;13.300;2023-05-09T05:23:32;97679.38;;;14.51;60.25
49947;BME280;35839;48.662;13.300;2023-05-09T05:25:57;97687.28;;;14.67;58.61
49947;BME280;35839;48.662;13.300;2023-05-09T05:28:23;97689.66;;;14.93;56.44
49947;BME280;35839;48.662;13.300;2023-05-09T05:30:48;97681.75;;;14.93;57.68
49947;BME280;35839;48.662;13.300;2023-05-09T05:33:13;97689.13;;;15.06;56.84
49947;BME280;35839;48.662;13.300;2023-05-09T05:35:38;97692.69;;;15.22;56.75
49947;BME280;35839;48.662;13.300;2023-05-09T05:38:04;97691.13;;;14.96;56.85
49947;BME280;35839;48.662;13.300;2023-05-09T05:40:29;97695.22;;;14.59;57.99
49947;BME280;35839;48.662;13.300;2023-05-09T05:42:54;97687.38;;;14.90;56.59
49947;BME280;35839;48.662;13.300;2023-05-09T05:45:20;97692.53;;;14.75;58.10
49947;BME280;35839;48.662;13.300;2023-05-09T05:47:45;97681.09;;;14.91;57.77
49947;BME280;35839;48.662;13.300;2023-05-09T05:50:10;97677.44;;;15.01;57.19
49947;BME280;35839;48.662;13.300;2023-05-09T05:52:40;97674.56;;;15.27;55.64
49947;BME280;35839;48.662;13.300;2023-05-09T05:55:08;97678.75;;;15.36;56.71
49947;BME280;35839;48.662;13.300;2023-05-09T05:57:33;97682.31;;;15.51;55.69
49947;BME280;35839;48.662;13.300;2023-05-09T05:59:59;97684.06;;;15.59;55.97
49947;BME280;35839;48.662;13.300;2023-05-09T06:02:25;97679.84;;;15.18;56.49
49947;BME280;35839;48.662;13.300;2023-05-09T06:04:50;97669.81;;;15.45;55.02
49947;BME280;35839;48.662;13.300;2023-05-09T06:07:16;97676.44;;;15.95;53.86
49947;BME280;35839;48.662;13.300;2023-05-09T06:09:41;97676.03;;;16.07;52.86
49947;BME280;35839;48.662;13.300;2023-05-09T06:12:06;97667.06;;;15.93;55.21
49947;BME280;35839;48.662;13.300;2023-05-09T06:14:32;97663.75;;;16.14;54.53
49947;BME280;35839;48.662;13.300;2023-05-09T06:16:58;97667.06;;;16.31;53.71
49947;BME280;35839;48.662;13.300;2023-05-09T06:19:23;97668.66;;;16.17;53.35
49947;BME280;35839;48.662;13.300;2023-05-09T06:21:49;97659.44;;;16.13;53.50
49947;BME280;35839;48.662;13.300;2023-05-09T06:24:14;97653.25;;;16.43;52.84
49947;BME280;35839;48.662;13.300;2023-05-09T06:26:39;97651.34;;;16.67;52.40
49947;BME280;35839;48.662;13.300;2023-05-09T06:29:05;97651.63;;;16.57;53.91
49947;BME280;35839;48.662;13.300;2023-05-09T06:31:31;97647.59;;;16.61;53.42
49947;BME280;35839;48.662;13.300;2023-05-09T06:33:59;97647.81;;;16.22;54.90
49947;BME280;35839;48.662;13.300;2023-05-09T06:36:25;97644.31;;;16.44;55.78
49947;BME280;35839;48.662;13.300;2023-05-09T06:38:50;97644.22;;;16.53;54.85
49947;BME280;35839;48.662;13.300;2023-05-09T06:41:15;97642.03;;;16.41;55.42
49947;BME280;35839;48.662;13.300;2023-05-09T06:43:41;97645.16;;;16.60;55.36
49947;BME280;35839;48.662;13.300;2023-05-09T06:46:06;97637.81;;;16.32;55.32
49947;BME280;35839;48.662;13.300;2023-05-09T06:48:31;97643.81;;;16.26;55.15
49947;BME280;35839;48.662;13.300;2023-05-09T06:50:56;97636.44;;;16.21;54.29
49947;BME280;35839;48.662;13.300;2023-05-09T06:53:22;97639.34;;;16.27;55.99
49947;BME280;35839;48.662;13.300;2023-05-09T06:55:47;97631.28;;;16.73;54.85
49947;BME280;35839;48.662;13.300;2023-05-09T06:58:12;97632.09;;;16.58;54.38
49947;BME280;35839;48.662;13.300;2023-05-09T07:00:38;97631.47;;;17.01;53.40
49947;BME280;35839;48.662;13.300;2023-05-09T07:03:03;97629.41;;;17.33;50.94
49947;BME280;35839;48.662;13.300;2023-05-09T07:05:31;97629.25;;;17.56;51.04
49947;BME280;35839;48.662;13.300;2023-05-09T07:07:56;97628.94;;;17.29;50.69
49947;BME280;35839;48.662;13.300;2023-05-09T07:10:22;97616.50;;;17.44;50.90
49947;BME280;35839;48.662;13.300;2023-05-09T07:12:47;97610.50;;;17.57;52.52
49947;BME280;35839;48.662;13.300;2023-05-09T07:15:12;97611.72;;;17.98;51.18
49947;BME280;35839;48.662;13.300;2023-05-09T07:17:38;97605.69;;;18.10;49.99
49947;BME280;35839;48.662;13.300;2023-05-09T07:20:04;97605.34;;;18.14;51.96
49947;BME280;35839;48.662;13.300;2023-05-09T07:22:30;97602.22;;;17.82;51.07
49947;BME280;35839;48.662;13.300;2023-05-09T07:24:55;97603.09;;;17.89;50.61
49947;BME280;35839;48.662;13.300;2023-05-09T07:27:20;97593.91;;;16.91;52.82
49947;BME280;35839;48.662;13.300;2023-05-09T07:29:45;97603.47;;;17.06;52.43
49947;BME280;35839;48.662;13.300;2023-05-09T07:32:13;97594.19;;;17.54;53.41
49947;BME280;35839;48.662;13.300;2023-05-09T07:34:38;97600.38;;;17.39;51.36
49947;BME280;35839;48.662;13.300;2023-05-09T07:37:03;97590.34;;;17.56;50.11
49947;BME280;35839;48.662;13.300;2023-05-09T07:39:29;97594.13;;;17.68;51.26
49947;BME280;35839;48.662;13.300;2023-05-09T07:41:54;97582.00;;;18.30;48.44
49947;BME280;35839;48.662;13.300;2023-05-09T07:44:19;97585.94;;;17.85;49.94
49947;BME280;35839;48.662;13.300;2023-05-09T07:46:44;97586.09;;;18.68;49.93
49947;BME280;35839;48.662;13.300;2023-05-09T07:49:10;97572.78;;;18.26;50.06
49947;BME280;35839;48.662;13.300;2023-05-09T07:51:35;97581.72;;;17.90;49.69
49947;BME280;35839;48.662;13.300;2023-05-09T07:54:00;97558.44;;;18.14;50.34
49947;BME280;35839;48.662;13.300;2023-05-09T07:56:26;97551.91;;;18.45;49.41
49947;BME280;35839;48.662;13.300;2023-05-09T07:58:51;97557.25;;;18.51;49.06
49947;BME280;35839;48.662;13.300;2023-05-09T08:01:16;97555.31;;;18.39;50.11
49947;BME280;35839;48.662;13.300;2023-05-09T08:03:42;97544.56;;;18.95;48.47
49947;BME280;35839;48.662;13.300;2023-05-09T08:06:07;97547.72;;;19.25;48.53
49947;BME280;35839;48.662;13.300;2023-05-09T08:08:32;97543.03;;;19.14;47.14
49947;BME280;35839;48.662;13.300;2023-05-09T08:10:58;97535.13;;;19.54;47.58
49947;BME280;35839;48.662;13.300;2023-05-09T08:13:23;97538.00;;;19.92;47.32
49947;BME280;35839;48.662;13.300;2023-05-09T08:15:49;97538.41;;;19.69;46.49
49947;BME280;35839;48.662;13.300;2023-05-09T08:18:14;97531.81;;;19.32;46.77
49947;BME280;35839;48.662;13.300;2023-05-09T08:20:40;97526.25;;;19.07;45.59
49947;BME280;35839;48.662;13.300;2023-05-09T08:23:05;97521.84;;;19.54;48.25
49947;BME280;35839;48.662;13.300;2023-05-09T08:25:31;97526.97;;;19.69;46.77
49947;BME280;35839;48.662;13.300;2023-05-09T08:27:56;97523.50;;;19.75;45.60
49947;BME280;35839;48.662;13.300;2023-05-09T08:30:22;97516.88;;;20.37;45.67
49947;BME280;35839;48.662;13.300;2023-05-09T08:32:47;97523.69;;;20.00;45.10
49947;BME280;35839;48.662;13.300;2023-05-09T08:35:12;97513.31;;;20.63;44.90
49947;BME280;35839;48.662;13.300;2023-05-09T08:37:39;97511.47;;;20.51;44.47
49947;BME280;35839;48.662;13.300;2023-05-09T08:40:05;97511.91;;;20.54;42.58
49947;BME280;35839;48.662;13.300;2023-05-09T08:42:32;97510.06;;;20.48;41.39
49947;BME280;35839;48.662;13.300;2023-05-09T08:44:59;97509.09;;;20.36;42.20
49947;BME280;35839;48.662;13.300;2023-05-09T08:47:26;97509.13;;;20.23;40.25
49947;BME280;35839;48.662;13.300;2023-05-09T08:49:52;97502.06;;;20.55;39.28
49947;BME280;35839;48.662;13.300;2023-05-09T08:52:19;97510.22;;;20.67;38.63
49947;BME280;35839;48.662;13.300;2023-05-09T08:54:44;97505.34;;;20.63;39.55
49947;BME280;35839;48.662;13.300;2023-05-09T08:57:10;97515.88;;;20.83;40.04
49947;BME280;35839;48.662;13.300;2023-05-09T08:59:36;97506.59;;;21.31;40.41
49947;BME280;35839;48.662;13.300;2023-05-09T09:02:05;97511.75;;;21.58;39.13
49947;BME280;35839;48.662;13.300;2023-05-09T09:04:31;97502.00;;;21.52;38.62
49947;BME280;35839;48.662;13.300;2023-05-09T09:06:57;97500.41;;;21.37;38.25
49947;BME280;35839;48.662;13.300;2023-05-09T09:09:24;97499.69;;;21.80;38.77
49947;BME280;35839;48.662;13.300;2023-05-09T09:11:50;97497.88;;;21.74;39.20
49947;BME280;35839;48.662;13.300;2023-05-09T09:14:23;97492.06;;;22.27;34.68
49947;BME280;35839;48.662;13.300;2023-05-09T09:16:53;97490.69;;;21.75;37.69
49947;BME280;35839;48.662;13.300;2023-05-09T09:19:21;97488.13;;;21.43;37.64
49947;BME280;35839;48.662;13.300;2023-05-09T09:21:47;97479.78;;;22.26;36.71
49947;BME280;35839;48.662;13.300;2023-05-09T09:24:20;97472.66;;;22.39;36.36
49947;BME280;35839;48.662;13.300;2023-05-09T09:26:48;97484.06;;;22.27;36.68
49947;BME280;35839;48.662;13.300;2023-05-09T09:29:14;97481.66;;;22.56;35.30
49947;BME280;35839;48.662;13.300;2023-05-09T09:31:43;97471.72;;;22.63;34.91
49947;BME280;35839;48.662;13.300;2023-05-09T09:34:12;97473.38;;;22.94;34.98
49947;BME280;35839;48.662;13.300;2023-05-09T09:36:38;97466.28;;;23.19;34.36
49947;BME280;35839;48.662;13.300;2023-05-09T09:39:04;97453.97;;;23.18;35.80
49947;BME280;35839;48.662;13.300;2023-05-09T09:43:56;97453.03;;;23.24;36.74
49947;BME280;35839;48.662;13.300;2023-05-09T09:46:22;97442.78;;;23.86;35.69
49947;BME280;35839;48.662;13.300;2023-05-09T09:48:47;97437.16;;;24.23;35.79
49947;BME280;35839;48.662;13.300;2023-05-09T09:51:19;97443.66;;;24.27;34.27
49947;BME280;35839;48.662;13.300;2023-05-09T09:53:45;97432.22;;;24.44;33.54
49947;BME280;35839;48.662;13.300;2023-05-09T09:56:11;97435.53;;;23.98;36.22
49947;BME280;35839;48.662;13.300;2023-05-09T09:58:36;97431.13;;;24.16;36.05
49947;BME280;35839;48.662;13.300;2023-05-09T10:01:06;97420.69;;;25.17;33.80
49947;BME280;35839;48.662;13.300;2023-05-09T10:03:39;97417.38;;;25.10;33.90
49947;BME280;35839;48.662;13.300;2023-05-09T10:06:08;97408.44;;;24.88;34.52
49947;BME280;35839;48.662;13.300;2023-05-09T10:08:34;97408.22;;;25.06;33.68
49947;BME280;35839;48.662;13.300;2023-05-09T10:11:00;97412.28;;;24.80;35.19
49947;BME280;35839;48.662;13.300;2023-05-09T10:13:26;97407.09;;;24.33;35.63
49947;BME280;35839;48.662;13.300;2023-05-09T10:15:53;97408.72;;;25.37;34.26
49947;BME280;35839;48.662;13.300;2023-05-09T10:18:24;97402.47;;;26.04;32.71
49947;BME280;35839;48.662;13.300;2023-05-09T10:20:52;97405.13;;;25.31;33.38
49947;BME280;35839;48.662;13.300;2023-05-09T10:23:18;97394.31;;;26.16;32.96
49947;BME280;35839;48.662;13.300;2023-05-09T10:26:01;97397.84;;;26.43;31.69
49947;BME280;35839;48.662;13.300;2023-05-09T10:28:31;97391.50;;;26.77;32.17
49947;BME280;35839;48.662;13.300;2023-05-09T10:31:46;97388.59;;;26.83;32.43
49947;BME280;35839;48.662;13.300;2023-05-09T10:33:52;97378.44;;;25.92;33.75
49947;BME280;35839;48.662;13.300;2023-05-09T10:36:21;97368.34;;;26.48;31.32
49947;BME280;35839;48.662;13.300;2023-05-09T10:38:47;97365.59;;;26.93;31.85
49947;BME280;35839;48.662;13.300;2023-05-09T10:41:15;97363.19;;;26.69;32.17
49947;BME280;35839;48.662;13.300;2023-05-09T10:43:40;97357.06;;;26.74;33.99
49947;BME280;35839;48.662;13.300;2023-05-09T10:46:07;97344.75;;;27.42;31.56
49947;BME280;35839;48.662;13.300;2023-05-09T10:48:33;97348.69;;;26.43;33.72
49947;BME280;35839;48.662;13.300;2023-05-09T10:51:01;97348.22;;;26.24;32.43
49947;BME280;35839;48.662;13.300;2023-05-09T10:53:45;97327.97;;;26.93;31.56
49947;BME280;35839;48.662;13.300;2023-05-09T10:56:30;97331.97;;;26.90;31.57
49947;BME280;35839;48.662;13.300;2023-05-09T10:58:56;97328.06;;;27.08;30.95
49947;BME280;35839;48.662;13.300;2023-05-09T11:01:35;97316.66;;;27.70;30.25
49947;BME280;35839;48.662;13.300;2023-05-09T11:04:11;97317.78;;;27.80;30.27
49947;BME280;35839;48.662;13.300;2023-05-09T11:09:32;97310.53;;;27.32;31.72
49947;BME280;35839;48.662;13.300;2023-05-09T11:12:19;97309.03;;;26.50;31.18
49947;BME280;35839;48.662;13.300;2023-05-09T11:14:49;97304.03;;;26.91;31.77
49947;BME280;35839;48.662;13.300;2023-05-09T11:22:13;97292.13;;;27.14;33.16
49947;BME280;35839;48.662;13.300;2023-05-09T11:24:42;97292.91;;;26.77;30.27
49947;BME280;35839;48.662;13.300;2023-05-09T11:27:22;97281.53;;;27.35;29.83
49947;BME280;35839;48.662;13.300;2023-05-09T11:30:03;97268.19;;;27.18;30.35
49947;BME280;35839;48.662;13.300;2023-05-09T11:32:34;97258.69;;;27.00;30.26
49947;BME280;35839;48.662;13.300;2023-05-09T11:35:11;97259.38;;;27.22;28.33
49947;BME280;35839;48.662;13.300;2023-05-09T11:37:44;97259.09;;;27.19;28.57
49947;BME280;35839;48.662;13.300;2023-05-09T11:40:12;97254.69;;;27.45;29.78
49947;BME280;35839;48.662;13.300;2023-05-09T11:42:41;97258.03;;;27.20;27.65
49947;BME280;35839;48.662;13.300;2023-05-09T11:45:08;97254.56;;;27.24;28.11
49947;BME280;35839;48.662;13.300;2023-05-09T11:47:35;97250.31;;;27.97;27.05
49947;BME280;35839;48.662;13.300;2023-05-09T11:50:01;97252.22;;;28.01;27.09
49947;BME280;35839;48.662;13.300;2023-05-09T11:52:31;97248.38;;;27.82;26.94
49947;BME280;35839;48.662;13.300;2023-05-09T11:54:57;97252.97;;;27.28;26.64
49947;BME280;35839;48.662;13.300;2023-05-09T11:57:23;97244.38;;;27.89;25.67
49947;BME280;35839;48.662;13.300;2023-05-09T11:59:48;97250.56;;;27.85;26.79
49947;BME280;35839;48.662;13.300;2023-05-09T12:02:13;97232.91;;;28.40;23.28
49947;BME280;35839;48.662;13.300;2023-05-09T12:04:39;97239.84;;;28.05;25.31
49947;BME280;35839;48.662;13.300;2023-05-09T12:07:04;97225.31;;;28.01;23.57
49947;BME280;35839;48.662;13.300;2023-05-09T12:09:34;97227.69;;;29.36;24.27
49947;BME280;35839;48.662;13.300;2023-05-09T12:12:08;97218.94;;;29.75;24.02
49947;BME280;35839;48.662;13.300;2023-05-09T12:14:35;97214.00;;;29.22;23.70
49947;BME280;35839;48.662;13.300;2023-05-09T12:17:00;97198.28;;;29.99;23.79
49947;BME280;35839;48.662;13.300;2023-05-09T12:19:27;97201.13;;;28.88;22.38
49947;BME280;35839;48.662;13.300;2023-05-09T12:21:57;97201.66;;;28.34;23.15
49947;BME280;35839;48.662;13.300;2023-05-09T12:24:24;97194.56;;;29.25;22.82
49947;BME280;35839;48.662;13.300;2023-05-09T12:26:54;97184.97;;;28.78;25.37
49947;BME280;35839;48.662;13.300;2023-05-09T12:29:20;97189.03;;;28.70;23.63
49947;BME280;35839;48.662;13.300;2023-05-09T12:31:46;97175.28;;;28.67;23.90
49947;BME280;35839;48.662;13.300;2023-05-09T12:34:12;97163.38;;;29.63;22.78
49947;BME280;35839;48.662;13.300;2023-05-09T12:36:38;97163.97;;;28.65;22.84
49947;BME280;35839;48.662;13.300;2023-05-09T12:39:09;97161.25;;;28.80;22.96
49947;BME280;35839;48.662;13.300;2023-05-09T12:41:42;97159.94;;;28.67;22.31
49947;BME280;35839;48.662;13.300;2023-05-09T12:44:08;97163.31;;;29.79;22.11
49947;BME280;35839;48.662;13.300;2023-05-09T12:46:34;97157.22;;;29.53;21.18
49947;BME280;35839;48.662;13.300;2023-05-09T12:49:00;97160.31;;;29.31;21.21
49947;BME280;35839;48.662;13.300;2023-05-09T12:51:25;97148.88;;;29.99;22.76
49947;BME280;35839;48.662;13.300;2023-05-09T12:53:51;97155.72;;;29.31;18.40
49947;BME280;35839;48.662;13.300;2023-05-09T12:56:18;97148.72;;;30.19;20.44
49947;BME280;35839;48.662;13.300;2023-05-09T12:58:51;97142.72;;;30.33;21.11
49947;BME280;35839;48.662;13.300;2023-05-09T13:01:18;97140.69;;;30.14;22.64
49947;BME280;35839;48.662;13.300;2023-05-09T13:03:43;97142.94;;;29.97;22.81
49947;BME280;35839;48.662;13.300;2023-05-09T13:06:11;97141.31;;;30.01;22.68
49947;BME280;35839;48.662;13.300;2023-05-09T13:08:37;97132.28;;;29.81;23.05
49947;BME280;35839;48.662;13.300;2023-05-09T13:11:03;97133.06;;;30.21;23.56
49947;BME280;35839;48.662;13.300;2023-05-09T13:13:29;97132.69;;;28.79;24.41
49947;BME280;35839;48.662;13.300;2023-05-09T13:15:55;97130.44;;;29.07;24.44
49947;BME280;35839;48.662;13.300;2023-05-09T13:18:21;97128.38;;;29.48;24.38
49947;BME280;35839;48.662;13.300;2023-05-09T13:20:48;97105.13;;;29.57;25.62
49947;BME280;35839;48.662;13.300;2023-05-09T13:23:14;97106.69;;;29.24;25.03
49947;BME280;35839;48.662;13.300;2023-05-09T13:25:39;97101.88;;;29.11;25.27
49947;BME280;35839;48.662;13.300;2023-05-09T13:28:04;97102.16;;;28.99;23.99
49947;BME280;35839;48.662;13.300;2023-05-09T13:30:30;97090.31;;;29.00;24.61
49947;BME280;35839;48.662;13.300;2023-05-09T13:32:55;97080.56;;;29.19;24.65
49947;BME280;35839;48.662;13.300;2023-05-09T13:35:21;97073.44;;;28.79;24.77
49947;BME280;35839;48.662;13.300;2023-05-09T13:37:46;97068.06;;;29.34;24.23
49947;BME280;35839;48.662;13.300;2023-05-09T13:40:12;97059.59;;;29.56;24.58
49947;BME280;35839;48.662;13.300;2023-05-09T13:42:37;97053.47;;;29.40;24.50
49947;BME280;35839;48.662;13.300;2023-05-09T13:45:03;97058.13;;;29.74;24.29
49947;BME280;35839;48.662;13.300;2023-05-09T13:47:29;97067.59;;;30.35;25.69
49947;BME280;35839;48.662;13.300;2023-05-09T13:49:54;97058.78;;;30.24;24.74
49947;BME280;35839;48.662;13.300;2023-05-09T13:52:19;97061.22;;;30.20;24.64
49947;BME280;35839;48.662;13.300;2023-05-09T13:54:45;97053.28;;;30.87;24.41
49947;BME280;35839;48.662;13.300;2023-05-09T13:57:11;97048.34;;;31.52;23.86
49947;BME280;35839;48.662;13.300;2023-05-09T13:59:36;97056.34;;;30.22;23.46
49947;BME280;35839;48.662;13.300;2023-05-09T14:02:02;97048.88;;;30.14;23.50
49947;BME280;35839;48.662;13.300;2023-05-09T14:04:28;97039.69;;;29.86;24.93
49947;BME280;35839;48.662;13.300;2023-05-09T14:06:57;97044.31;;;29.80;24.72
49947;BME280;35839;48.662;13.300;2023-05-09T14:09:24;97042.97;;;29.78;24.98
49947;BME280;35839;48.662;13.300;2023-05-09T14:11:50;97042.56;;;31.39;24.01
49947;BME280;35839;48.662;13.300;2023-05-09T14:14:21;97040.00;;;31.67;23.66
49947;BME280;35839;48.662;13.300;2023-05-09T14:16:47;97026.06;;;30.31;24.44
49947;BME280;35839;48.662;13.300;2023-05-09T14:19:12;97023.09;;;31.42;25.21
49947;BME280;35839;48.662;13.300;2023-05-09T14:21:42;97015.44;;;30.10;23.88
49947;BME280;35839;48.662;13.300;2023-05-09T14:24:09;97009.91;;;30.50;24.30
49947;BME280;35839;48.662;13.300;2023-05-09T14:26:35;97001.47;;;31.18;23.97
49947;BME280;35839;48.662;13.300;2023-05-09T14:29:04;97006.13;;;32.63;22.48
49947;BME280;35839;48.662;13.300;2023-05-09T14:31:30;97002.88;;;32.05;22.43
49947;BME280;35839;48.662;13.300;2023-05-09T14:33:55;96991.69;;;32.53;22.08
49947;BME280;35839;48.662;13.300;2023-05-09T14:36:21;96986.81;;;31.76;22.24
49947;BME280;35839;48.662;13.300;2023-05-09T14:38:47;96988.28;;;32.62;23.48
49947;BME280;35839;48.662;13.300;2023-05-09T14:41:12;96987.38;;;31.92;22.11
49947;BME280;35839;48.662;13.300;2023-05-09T14:43:38;96988.34;;;30.69;22.85
49947;BME280;35839;48.662;13.300;2023-05-09T14:46:03;96985.63;;;31.12;23.13
49947;BME280;35839;48.662;13.300;2023-05-09T14:48:29;96991.47;;;31.19;22.98
49947;BME280;35839;48.662;13.300;2023-05-09T14:50:54;96971.75;;;30.99;22.90
49947;BME280;35839;48.662;13.300;2023-05-09T14:53:22;96982.41;;;31.09;23.14
49947;BME280;35839;48.662;13.300;2023-05-09T14:55:50;96964.31;;;31.62;22.73
49947;BME280;35839;48.662;13.300;2023-05-09T14:58:16;96964.63;;;31.60;22.45
49947;BME280;35839;48.662;13.300;2023-05-09T15:00:45;96965.19;;;31.05;22.08
49947;BME280;35839;48.662;13.300;2023-05-09T15:03:11;96965.22;;;31.38;21.68
49947;BME280;35839;48.662;13.300;2023-05-09T15:05:36;96957.25;;;31.93;21.29
49947;BME280;35839;48.662;13.300;2023-05-09T15:08:01;96958.03;;;33.19;21.69
49947;BME280;35839;48.662;13.300;2023-05-09T15:10:27;96959.09;;;33.09;19.93
49947;BME280;35839;48.662;13.300;2023-05-09T15:12:52;96961.44;;;31.72;20.83
49947;BME280;35839;48.662;13.300;2023-05-09T15:15:19;96954.81;;;30.94;21.71
49947;BME280;35839;48.662;13.300;2023-05-09T15:17:45;96947.75;;;31.12;20.31
49947;BME280;35839;48.662;13.300;2023-05-09T15:20:11;96941.44;;;32.84;20.46
49947;BME280;35839;48.662;13.300;2023-05-09T15:22:39;96938.47;;;32.71;19.50
49947;BME280;35839;48.662;13.300;2023-05-09T15:25:05;96940.38;;;31.69;19.41
49947;BME280;35839;48.662;13.300;2023-05-09T15:27:30;96939.63;;;31.82;19.17
49947;BME280;35839;48.662;13.300;2023-05-09T15:29:55;96934.34;;;32.32;19.21
49947;BME280;35839;48.662;13.300;2023-05-09T15:32:21;96924.56;;;31.76;18.78
49947;BME280;35839;48.662;13.300;2023-05-09T15:34:46;96926.69;;;31.46;18.93
49947;BME280;35839;48.662;13.300;2023-05-09T15:37:12;96934.28;;;32.10;18.11
49947;BME280;35839;48.662;13.300;2023-05-09T15:39:37;96920.78;;;32.74;17.95
49947;BME280;35839;48.662;13.300;2023-05-09T15:42:08;96917.72;;;33.26;18.92
49947;BME280;35839;48.662;13.300;2023-05-09T15:44:34;96911.09;;;32.04;18.55
49947;BME280;35839;48.662;13.300;2023-05-09T15:46:59;96915.53;;;31.67;18.85
49947;BME280;35839;48.662;13.300;2023-05-09T15:49:25;96908.97;;;32.56;19.64
49947;BME280;35839;48.662;13.300;2023-05-09T15:51:50;96922.22;;;31.56;19.24
49947;BME280;35839;48.662;13.300;2023-05-09T15:54:16;96914.13;;;31.69;18.51
49947;BME280;35839;48.662;13.300;2023-05-09T15:56:41;96916.94;;;31.78;19.14
49947;BME280;35839;48.662;13.300;2023-05-09T15:59:07;96913.56;;;32.69;18.85
49947;BME280;35839;48.662;13.300;2023-05-09T16:01:33;96902.13;;;34.16;18.06
49947;BME280;35839;48.662;13.300;2023-05-09T16:03:59;96907.91;;;33.92;18.39
49947;BME280;35839;48.662;13.300;2023-05-09T16:06:25;96905.81;;;33.35;18.30
49947;BME280;35839;48.662;13.300;2023-05-09T16:08:50;96905.66;;;32.31;19.67
49947;BME280;35839;48.662;13.300;2023-05-09T16:11:16;96904.41;;;31.68;19.72
49947;BME280;35839;48.662;13.300;2023-05-09T16:13:41;96896.56;;;31.34;19.78
49947;BME280;35839;48.662;13.300;2023-05-09T16:16:06;96897.66;;;31.00;21.33
49947;BME280;35839;48.662;13.300;2023-05-09T16:18:31;96899.88;;;30.12;22.50
49947;BME280;35839;48.662;13.300;2023-05-09T16:20:57;96889.31;;;30.40;20.89
49947;BME280;35839;48.662;13.300;2023-05-09T16:23:22;96890.06;;;30.16;21.31
49947;BME280;35839;48.662;13.300;2023-05-09T16:25:48;96887.75;;;30.53;21.29
49947;BME280;35839;48.662;13.300;2023-05-09T16:28:14;96880.25;;;31.72;21.11
49947;BME280;35839;48.662;13.300;2023-05-09T16:30:39;96875.47;;;32.38;21.14
49947;BME280;35839;48.662;13.300;2023-05-09T16:33:05;96869.22;;;32.38;20.31
49947;BME280;35839;48.662;13.300;2023-05-09T16:35:30;96865.22;;;31.66;20.99
49947;BME280;35839;48.662;13.300;2023-05-09T16:37:55;96858.38;;;31.22;22.37
49947;BME280;35839;48.662;13.300;2023-05-09T16:40:21;96849.25;;;31.18;22.38
49947;BME280;35839;48.662;13.300;2023-05-09T16:42:46;96852.13;;;30.70;23.18
49947;BME280;35839;48.662;13.300;2023-05-09T16:45:12;96852.63;;;30.72;22.73
49947;BME280;35839;48.662;13.300;2023-05-09T16:47:37;96842.06;;;30.13;22.86
49947;BME280;35839;48.662;13.300;2023-05-09T16:50:02;96843.78;;;29.56;22.91
49947;BME280;35839;48.662;13.300;2023-05-09T16:52:28;96838.28;;;30.14;22.79
49947;BME280;35839;48.662;13.300;2023-05-09T16:54:54;96837.47;;;30.38;22.88
49947;BME280;35839;48.662;13.300;2023-05-09T16:57:19;96830.59;;;30.27;24.12
49947;BME280;35839;48.662;13.300;2023-05-09T16:59:45;96823.97;;;30.38;23.66
49947;BME280;35839;48.662;13.300;2023-05-09T17:02:11;96828.28;;;29.91;24.06
49947;BME280;35839;48.662;13.300;2023-05-09T17:04:36;96819.81;;;28.91;24.35
49947;BME280;35839;48.662;13.300;2023-05-09T17:07:02;96823.91;;;27.63;25.99
49947;BME280;35839;48.662;13.300;2023-05-09T17:09:27;96826.94;;;26.75;26.66
49947;BME280;35839;48.662;13.300;2023-05-09T17:11:52;96817.47;;;26.52;27.34
49947;BME280;35839;48.662;13.300;2023-05-09T17:14:18;96814.00;;;26.66;28.05
49947;BME280;35839;48.662;13.300;2023-05-09T17:16:43;96817.78;;;26.96;27.77
49947;BME280;35839;48.662;13.300;2023-05-09T17:19:08;96822.56;;;26.53;27.97
49947;BME280;35839;48.662;13.300;2023-05-09T17:21:34;96813.56;;;26.01;28.95
49947;BME280;35839;48.662;13.300;2023-05-09T17:23:59;96817.81;;;25.39;30.55
49947;BME280;35839;48.662;13.300;2023-05-09T17:26:26;96817.44;;;25.26;30.82
49947;BME280;35839;48.662;13.300;2023-05-09T17:28:52;96809.81;;;25.50;31.20
49947;BME280;35839;48.662;13.300;2023-05-09T17:31:17;96820.72;;;25.33;31.39
49947;BME280;35839;48.662;13.300;2023-05-09T17:33:42;96815.28;;;25.22;32.00
49947;BME280;35839;48.662;13.300;2023-05-09T17:36:08;96809.25;;;24.46;33.43
49947;BME280;35839;48.662;13.300;2023-05-09T17:38:33;96812.34;;;24.92;32.37
49947;BME280;35839;48.662;13.300;2023-05-09T17:40:58;96815.19;;;24.48;33.39
49947;BME280;35839;48.662;13.300;2023-05-09T17:43:24;96815.06;;;24.43;33.33